createdAt,value
2019-03-26T00:01:46.262Z,39.23
2019-03-26T00:04:18.113Z,37.10
2019-03-26T00:06:49.012Z,36.83
2019-03-26T00:09:19.847Z,39.53
2019-03-26T00:11:50.790Z,39.13
2019-03-26T00:14:22.242Z,41.07
2019-03-26T00:16:53.118Z,40.80
2019-03-26T00:19:23.909Z,46.87
2019-03-26T00:21:54.774Z,36.93
2019-03-26T00:24:25.730Z,39.20
2019-03-26T00:26:56.497Z,39.73
2019-03-26T00:29:27.262Z,39.20
2019-03-26T00:31:58.218Z,42.37
2019-03-26T00:34:28.964Z,36.50
2019-03-26T00:36:59.734Z,42.43
2019-03-26T00:39:30.495Z,37.37
2019-03-26T00:42:01.358Z,41.83
2019-03-26T00:44:32.066Z,42.43
2019-03-26T00:47:02.906Z,42.30
2019-03-26T00:49:33.741Z,37.10
2019-03-26T00:52:05.601Z,45.23
2019-03-26T00:54:36.471Z,42.17
2019-03-26T00:57:07.274Z,45.57
2019-03-26T00:59:38.116Z,43.90
2019-03-26T01:02:08.966Z,44.17
2019-03-26T01:04:39.867Z,49.43
2019-03-26T01:07:10.674Z,40.67
2019-03-26T01:09:41.476Z,42.27
2019-03-26T01:12:12.379Z,41.53
2019-03-26T01:14:43.486Z,40.93
2019-03-26T01:17:14.693Z,45.60
2019-03-26T01:19:45.469Z,42.30
2019-03-26T01:22:16.955Z,38.87
2019-03-26T01:24:47.714Z,43.83
2019-03-26T01:27:18.585Z,41.83
2019-03-26T01:29:49.464Z,40.10
2019-03-26T01:32:20.275Z,41.17
2019-03-26T01:34:51.125Z,39.07
2019-03-26T01:37:21.895Z,36.80
2019-03-26T01:39:52.811Z,40.00
2019-03-26T01:42:24.757Z,42.20
2019-03-26T01:44:55.593Z,37.70
2019-03-26T01:47:26.241Z,41.83
2019-03-26T01:49:57.109Z,42.60
2019-03-26T01:52:27.881Z,36.03
2019-03-26T01:54:58.762Z,42.17
2019-03-26T01:57:30.513Z,39.30
2019-03-26T02:00:01.193Z,42.47
2019-03-26T02:02:32.551Z,33.50
2019-03-26T02:05:03.667Z,37.73
2019-03-26T02:07:34.579Z,36.67
2019-03-26T02:10:05.719Z,40.40
2019-03-26T02:12:36.763Z,29.70
2019-03-26T02:15:08.783Z,34.60
2019-03-26T02:17:39.641Z,33.17
2019-03-26T02:20:10.663Z,36.27
2019-03-26T02:22:41.395Z,32.13
2019-03-26T02:25:12.309Z,32.60
2019-03-26T02:27:43.112Z,30.90
2019-03-26T02:30:13.912Z,30.33
2019-03-26T02:32:45.000Z,36.37
2019-03-26T02:35:18.123Z,32.83
2019-03-26T02:37:48.508Z,30.87
2019-03-26T02:40:19.287Z,34.63
2019-03-26T02:42:50.091Z,35.70
2019-03-26T02:45:20.891Z,31.97
2019-03-26T02:47:51.825Z,32.03
2019-03-26T02:50:22.582Z,29.57
2019-03-26T02:52:53.495Z,27.07
2019-03-26T02:55:24.359Z,30.90
2019-03-26T02:57:55.193Z,31.93
2019-03-26T03:00:26.012Z,33.07
2019-03-26T03:02:56.822Z,31.90
2019-03-26T03:05:35.242Z,29.23
2019-03-26T03:08:00.051Z,29.00
2019-03-26T03:10:30.792Z,33.47
2019-03-26T03:13:01.677Z,29.10
2019-03-26T03:15:32.495Z,36.43
2019-03-26T03:18:03.286Z,33.43
2019-03-26T03:20:34.372Z,31.27
2019-03-26T03:23:05.186Z,36.17
2019-03-26T03:25:36.100Z,39.80
2019-03-26T03:28:07.182Z,33.37
2019-03-26T03:30:38.016Z,30.37
2019-03-26T03:33:08.859Z,35.50
2019-03-26T03:35:52.188Z,31.47
2019-03-26T03:38:12.087Z,34.63
2019-03-26T03:40:43.032Z,30.73
2019-03-26T03:43:14.063Z,30.17
2019-03-26T03:45:45.967Z,37.40
2019-03-26T03:48:16.910Z,35.30
2019-03-26T03:50:48.589Z,45.17
2019-03-26T03:53:21.523Z,38.43
2019-03-26T03:55:54.214Z,38.80
2019-03-26T03:58:26.830Z,36.87
2019-03-26T04:00:57.703Z,41.10
2019-03-26T04:03:28.612Z,43.10
2019-03-26T04:06:09.131Z,40.17
2019-03-26T04:08:31.857Z,38.00
2019-03-26T04:11:02.842Z,44.90
2019-03-26T04:13:33.654Z,43.57
2019-03-26T04:16:04.396Z,44.67
2019-03-26T04:18:35.200Z,49.90
2019-03-26T04:21:06.149Z,39.40
2019-03-26T04:23:36.948Z,39.67
2019-03-26T04:26:07.742Z,51.13
2019-03-26T04:28:38.729Z,39.37
2019-03-26T04:31:09.648Z,44.53
2019-03-26T04:33:40.424Z,44.93
2019-03-26T04:36:24.526Z,43.90
2019-03-26T04:38:44.054Z,51.70
2019-03-26T04:41:14.869Z,51.17
2019-03-26T04:43:45.642Z,50.50
2019-03-26T04:46:16.809Z,52.60
2019-03-26T04:48:47.634Z,56.23
2019-03-26T04:51:18.437Z,56.63
2019-03-26T04:53:49.768Z,44.93
2019-03-26T04:56:20.779Z,47.93
2019-03-26T04:58:51.588Z,53.83
2019-03-26T05:01:22.499Z,51.93
2019-03-26T05:03:53.293Z,47.77
2019-03-26T05:06:37.174Z,50.17
2019-03-26T05:08:57.601Z,56.90
2019-03-26T05:11:28.463Z,47.00
2019-03-26T05:13:59.438Z,46.90
2019-03-26T05:16:30.287Z,43.97
2019-03-26T05:19:01.563Z,48.50
2019-03-26T05:21:32.831Z,57.47
2019-03-26T05:24:03.612Z,54.67
2019-03-26T05:26:34.678Z,57.17
2019-03-26T05:29:05.467Z,55.37
2019-03-26T05:31:36.297Z,46.23
2019-03-26T05:34:07.117Z,53.80
2019-03-26T05:36:50.443Z,47.80
2019-03-26T05:39:10.438Z,49.30
2019-03-26T05:41:41.222Z,48.33
2019-03-26T05:44:12.519Z,57.30
2019-03-26T05:46:43.316Z,63.37
2019-03-26T05:49:14.321Z,61.83
2019-03-26T05:51:45.134Z,60.40
2019-03-26T05:54:15.944Z,57.30
2019-03-26T05:56:46.744Z,67.13
2019-03-26T05:59:17.628Z,65.50
2019-03-26T06:01:48.371Z,62.43
2019-03-26T06:04:19.814Z,56.77
2019-03-26T06:07:03.891Z,61.43
2019-03-26T06:09:23.390Z,55.83
2019-03-26T06:11:54.174Z,57.33
2019-03-26T06:14:25.610Z,53.30
2019-03-26T06:16:56.394Z,64.47
2019-03-26T06:19:27.898Z,67.80
2019-03-26T06:21:58.698Z,65.57
2019-03-26T06:24:29.667Z,69.83
2019-03-26T06:27:00.465Z,64.07
2019-03-26T06:29:31.282Z,63.73
2019-03-26T06:32:02.047Z,59.50
2019-03-26T06:34:33.231Z,57.60
2019-03-26T06:37:16.871Z,63.07
2019-03-26T06:39:36.330Z,65.27
2019-03-26T06:42:07.574Z,72.30
2019-03-26T06:44:38.351Z,64.00
2019-03-26T06:47:09.116Z,64.37
2019-03-26T06:49:40.260Z,56.37
2019-03-26T06:52:11.030Z,57.77
2019-03-26T06:54:42.071Z,56.50
2019-03-26T06:57:12.869Z,53.57
2019-03-26T06:59:44.072Z,54.47
2019-03-26T07:02:14.892Z,57.67
2019-03-26T07:04:47.655Z,57.87
2019-03-26T07:07:30.570Z,54.97
2019-03-26T07:09:50.866Z,59.27
2019-03-26T07:12:21.906Z,60.43
2019-03-26T07:14:52.723Z,59.83
2019-03-26T07:17:23.902Z,64.60
2019-03-26T07:19:55.208Z,59.70
2019-03-26T07:22:26.517Z,55.90
2019-03-26T07:24:57.418Z,57.73
2019-03-26T07:27:28.567Z,47.77
2019-03-26T07:29:59.804Z,49.27
2019-03-26T07:32:31.118Z,44.63
2019-03-26T07:35:01.911Z,50.60
2019-03-26T07:37:44.446Z,44.23
2019-03-26T07:40:07.244Z,40.93
2019-03-26T07:42:38.414Z,44.13
2019-03-26T07:45:10.887Z,50.40
2019-03-26T07:47:41.966Z,50.20
2019-03-26T07:50:15.176Z,42.80
2019-03-26T07:52:46.310Z,43.10
2019-03-26T07:55:17.116Z,34.37
2019-03-26T07:57:47.986Z,42.13
2019-03-26T08:00:22.434Z,40.77
2019-03-26T08:02:53.722Z,41.97
2019-03-26T08:05:29.648Z,35.43
2019-03-26T08:07:58.471Z,32.60
2019-03-26T08:10:29.492Z,34.57
2019-03-26T08:13:00.374Z,35.30
2019-03-26T08:15:31.198Z,38.87
2019-03-26T08:18:02.424Z,37.13
2019-03-26T08:20:33.973Z,38.40
2019-03-26T08:23:04.802Z,37.17
2019-03-26T08:25:35.611Z,36.33
2019-03-26T08:28:06.438Z,37.03
2019-03-26T08:30:37.231Z,47.70
2019-03-26T08:33:08.012Z,40.60
2019-03-26T08:35:39.184Z,34.47
2019-03-26T08:38:12.834Z,36.40
2019-03-26T08:40:42.702Z,42.27
2019-03-26T08:43:13.534Z,42.27
2019-03-26T08:45:44.983Z,38.90
2019-03-26T08:48:15.902Z,38.40
2019-03-26T08:50:46.959Z,34.33
2019-03-26T08:53:17.834Z,35.73
2019-03-26T08:55:48.638Z,31.00
2019-03-26T08:58:19.474Z,29.27
2019-03-26T09:00:50.278Z,36.47
2019-03-26T09:03:21.499Z,30.77
2019-03-26T09:05:52.423Z,34.67
2019-03-26T09:08:25.478Z,32.23
2019-03-26T09:10:55.614Z,32.60
2019-03-26T09:13:26.442Z,29.50
2019-03-26T09:15:57.221Z,35.27
2019-03-26T09:18:28.055Z,34.77
2019-03-26T09:20:58.896Z,38.77
2019-03-26T09:23:29.683Z,35.13
2019-03-26T09:26:00.589Z,33.47
2019-03-26T09:28:32.647Z,34.83
2019-03-26T09:31:03.440Z,34.37
2019-03-26T09:33:34.222Z,33.00
2019-03-26T09:36:05.051Z,35.87
2019-03-26T09:38:39.202Z,33.97
2019-03-26T09:41:08.296Z,32.70
2019-03-26T09:43:39.108Z,31.10
2019-03-26T09:46:09.933Z,31.20
2019-03-26T09:48:40.753Z,32.77
2019-03-26T09:51:11.544Z,30.90
2019-03-26T09:53:42.362Z,34.93
2019-03-26T09:56:13.140Z,32.47
2019-03-26T09:58:44.002Z,29.33
2019-03-26T10:01:14.763Z,32.43
2019-03-26T10:03:45.626Z,33.70
2019-03-26T10:06:23.393Z,36.33
2019-03-26T10:08:52.645Z,37.87
2019-03-26T10:11:22.959Z,41.37
2019-03-26T10:13:53.793Z,37.20
2019-03-26T10:16:24.668Z,39.03
2019-03-26T10:18:55.535Z,38.70
2019-03-26T10:21:26.361Z,37.30
2019-03-26T10:23:57.167Z,35.23
2019-03-26T10:26:28.018Z,37.23
2019-03-26T10:28:58.771Z,39.00
2019-03-26T10:31:29.946Z,35.13
2019-03-26T10:34:00.758Z,34.20
2019-03-26T10:36:32.413Z,33.37
2019-03-26T10:39:05.274Z,32.03
2019-03-26T10:41:37.269Z,35.03
2019-03-26T10:44:08.244Z,31.77
2019-03-26T10:46:39.267Z,33.93
2019-03-26T10:49:10.054Z,29.80
2019-03-26T10:51:41.245Z,30.27
2019-03-26T10:54:12.016Z,29.87
2019-03-26T10:56:42.795Z,32.00
2019-03-26T10:59:13.757Z,34.83
2019-03-26T11:01:44.543Z,30.17
2019-03-26T11:04:15.303Z,29.27
2019-03-26T11:06:46.581Z,25.97
2019-03-26T11:09:23.997Z,31.00
2019-03-26T11:11:49.861Z,25.67
2019-03-26T11:14:20.698Z,31.00
2019-03-26T11:16:51.586Z,25.53
2019-03-26T11:19:22.371Z,28.07
2019-03-26T11:21:53.434Z,29.23
2019-03-26T11:24:24.269Z,26.63
2019-03-26T11:26:55.415Z,32.67
2019-03-26T11:29:26.634Z,30.90
2019-03-26T11:31:57.471Z,22.27
2019-03-26T11:34:28.295Z,26.40
2019-03-26T11:36:59.211Z,25.87
2019-03-26T11:39:32.862Z,23.97
2019-03-26T11:42:02.435Z,18.80
2019-03-26T11:44:33.239Z,25.03
2019-03-26T11:47:04.160Z,22.37
2019-03-26T11:49:34.877Z,19.50
2019-03-26T11:52:06.019Z,21.80
2019-03-26T11:54:36.773Z,18.33
2019-03-26T11:57:07.583Z,22.77
2019-03-26T11:59:39.054Z,24.60
2019-03-26T12:02:11.192Z,19.70
2019-03-26T12:04:42.316Z,18.47
2019-03-26T12:07:13.044Z,24.07
2019-03-26T12:09:46.658Z,20.37
2019-03-26T12:12:16.278Z,18.00
2019-03-26T12:14:47.129Z,19.67
2019-03-26T12:17:17.886Z,26.10
2019-03-26T12:19:48.754Z,21.93
2019-03-26T12:22:19.554Z,27.37
2019-03-26T12:24:50.376Z,26.87
2019-03-26T12:27:21.608Z,24.03
2019-03-26T12:29:52.570Z,23.60
2019-03-26T12:32:23.422Z,20.63
2019-03-26T12:34:54.262Z,19.70
2019-03-26T12:37:25.130Z,18.10
2019-03-26T12:39:59.845Z,19.40
2019-03-26T12:42:28.335Z,24.53
2019-03-26T12:44:59.115Z,21.53
2019-03-26T12:47:29.854Z,16.07
2019-03-26T12:50:00.610Z,21.03
2019-03-26T12:52:31.444Z,15.23
2019-03-26T12:55:02.218Z,19.60
2019-03-26T12:57:33.187Z,24.30
2019-03-26T13:00:04.502Z,19.40
2019-03-26T13:02:35.996Z,21.30
2019-03-26T13:05:07.673Z,24.70
2019-03-26T13:07:38.495Z,20.57
2019-03-26T13:10:14.084Z,17.93
2019-03-26T13:12:42.948Z,24.57
2019-03-26T13:15:13.950Z,16.10
2019-03-26T13:17:44.798Z,17.70
2019-03-26T13:20:15.573Z,20.10
2019-03-26T13:22:46.426Z,9.23
2019-03-26T13:25:17.243Z,10.60
2019-03-26T13:27:48.158Z,19.03
2019-03-26T13:30:19.562Z,13.60
2019-03-26T13:32:50.410Z,17.73
2019-03-26T13:35:21.320Z,10.90
2019-03-26T13:37:52.165Z,12.00
2019-03-26T13:40:27.436Z,11.23
2019-03-26T13:42:56.673Z,12.90
2019-03-26T13:45:27.494Z,13.07
2019-03-26T13:47:58.323Z,9.67
2019-03-26T13:50:29.114Z,14.17
2019-03-26T13:52:59.916Z,9.73
2019-03-26T13:55:30.762Z,15.63
2019-03-26T13:58:01.545Z,15.67
2019-03-26T14:00:40.560Z,15.70
2019-03-26T14:03:12.400Z,14.87
2019-03-26T14:05:43.213Z,16.30
2019-03-26T14:08:14.040Z,17.27
2019-03-26T14:10:44.883Z,12.40
2019-03-26T14:13:16.867Z,16.20
2019-03-26T14:15:47.876Z,17.17
2019-03-26T14:18:18.711Z,18.03
2019-03-26T14:20:50.149Z,16.90
2019-03-26T14:23:20.842Z,16.43
2019-03-26T14:25:52.216Z,21.80
2019-03-26T14:28:23.002Z,23.80
2019-03-26T14:30:53.819Z,17.67
2019-03-26T14:33:25.292Z,19.53
2019-03-26T14:35:56.153Z,25.53
2019-03-26T14:38:27.127Z,15.37
2019-03-26T14:40:57.924Z,19.30
2019-03-26T14:43:28.711Z,17.33
2019-03-26T14:45:59.553Z,23.47
2019-03-26T14:48:30.368Z,19.47
2019-03-26T14:51:01.171Z,18.60
2019-03-26T14:53:31.943Z,20.23
2019-03-26T14:56:02.755Z,19.53
2019-03-26T14:58:33.605Z,17.77
2019-03-26T15:01:04.785Z,19.23
2019-03-26T15:03:35.643Z,20.07
2019-03-26T15:06:07.033Z,17.43
2019-03-26T15:08:37.815Z,11.80
2019-03-26T15:11:08.820Z,23.60
2019-03-26T15:13:40.698Z,20.17
2019-03-26T15:16:11.678Z,23.13
2019-03-26T15:18:42.583Z,19.63
2019-03-26T15:21:13.365Z,14.30
2019-03-26T15:23:44.479Z,8.47
2019-03-26T15:26:15.293Z,13.70
2019-03-26T15:28:46.123Z,13.10
2019-03-26T15:31:16.918Z,13.23
2019-03-26T15:33:49.058Z,13.13
2019-03-26T15:36:19.803Z,12.87
2019-03-26T15:38:51.921Z,14.27
2019-03-26T15:41:22.828Z,7.77
2019-03-26T15:43:53.699Z,6.17
2019-03-26T15:46:24.540Z,4.13
2019-03-26T15:48:55.454Z,12.67
2019-03-26T15:51:27.028Z,3.70
2019-03-26T15:53:57.913Z,9.50
2019-03-26T15:56:29.017Z,3.20
2019-03-26T15:58:59.873Z,6.90
2019-03-26T16:01:30.695Z,4.47
2019-03-26T16:04:01.547Z,5.30
2019-03-26T16:06:32.486Z,8.93
2019-03-26T16:09:04.010Z,5.33
2019-03-26T16:11:36.448Z,6.33
2019-03-26T16:14:07.606Z,8.03
2019-03-26T16:16:38.472Z,6.33
2019-03-26T16:19:10.231Z,7.87
2019-03-26T16:21:41.188Z,9.13
2019-03-26T16:24:12.315Z,8.17
2019-03-26T16:26:43.118Z,9.63
2019-03-26T16:29:13.920Z,7.60
2019-03-26T16:31:45.346Z,7.17
2019-03-26T16:34:16.479Z,7.97
2019-03-26T16:36:58.921Z,5.37
2019-03-26T16:39:20.084Z,6.40
2019-03-26T16:41:51.195Z,6.77
2019-03-26T16:44:22.163Z,7.60
2019-03-26T16:46:53.115Z,9.97
2019-03-26T16:49:23.834Z,9.57
2019-03-26T16:51:55.203Z,7.93
2019-03-26T16:54:26.118Z,11.97
2019-03-26T16:56:58.417Z,8.93
2019-03-26T16:59:29.644Z,10.03
2019-03-26T17:02:00.426Z,10.30
2019-03-26T17:04:31.749Z,16.40
2019-03-26T17:07:04.272Z,13.23
2019-03-26T17:09:35.566Z,14.43
2019-03-26T17:12:06.556Z,19.73
2019-03-26T17:14:37.415Z,27.90
2019-03-26T17:17:08.325Z,26.60
2019-03-26T17:19:39.546Z,28.10
2019-03-26T17:22:10.357Z,22.90
2019-03-26T17:24:41.499Z,25.00
2019-03-26T17:27:12.320Z,23.50
2019-03-26T17:29:43.488Z,29.17
2019-03-26T17:32:14.274Z,21.30
2019-03-26T17:34:46.570Z,18.50
2019-03-26T17:37:17.361Z,21.83
2019-03-26T17:39:50.382Z,21.93
2019-03-26T17:42:21.561Z,19.33
2019-03-26T17:44:52.399Z,13.77
2019-03-26T17:47:23.327Z,15.77
2019-03-26T17:49:54.108Z,16.23
2019-03-26T17:52:24.908Z,18.20
2019-03-26T17:54:55.673Z,18.67
2019-03-26T17:57:26.401Z,16.43
2019-03-26T17:59:57.506Z,12.97
2019-03-26T18:02:28.337Z,11.77
2019-03-26T18:04:59.219Z,15.53
2019-03-26T18:07:30.147Z,18.00
2019-03-26T18:10:00.959Z,11.03
2019-03-26T18:12:31.943Z,15.47
2019-03-26T18:15:02.788Z,15.57
2019-03-26T18:17:33.616Z,14.27
2019-03-26T18:20:05.027Z,12.40
2019-03-26T18:22:36.129Z,12.40
2019-03-26T18:25:06.970Z,9.63
2019-03-26T18:27:38.150Z,8.97
2019-03-26T18:30:09.712Z,12.13
2019-03-26T18:32:40.885Z,13.40
2019-03-26T18:35:14.675Z,12.37
2019-03-26T18:37:45.495Z,14.63
2019-03-26T18:40:16.399Z,8.77
2019-03-26T18:42:47.881Z,16.87
2019-03-26T18:45:18.790Z,11.93
2019-03-26T18:47:49.948Z,19.03
2019-03-26T18:50:21.106Z,15.93
2019-03-26T18:52:51.974Z,12.33
2019-03-26T18:55:25.266Z,11.13
2019-03-26T18:57:55.615Z,14.43
2019-03-26T19:00:35.152Z,15.27
2019-03-26T19:03:06.828Z,14.87
2019-03-26T19:05:38.299Z,12.20
2019-03-26T19:08:09.151Z,11.27
2019-03-26T19:10:43.961Z,15.23
2019-03-26T19:13:19.677Z,13.17
2019-03-26T19:15:47.464Z,12.93
2019-03-26T19:18:18.933Z,18.43
2019-03-26T19:21:01.379Z,12.67
2019-03-26T19:23:22.483Z,11.07
2019-03-26T19:25:53.328Z,12.43
2019-03-26T19:28:24.444Z,12.93
2019-03-26T19:30:55.195Z,10.93
2019-03-26T19:33:26.137Z,14.47
2019-03-26T19:35:57.557Z,15.10
2019-03-26T19:38:28.376Z,14.87
2019-03-26T19:40:59.164Z,11.47
2019-03-26T19:43:30.114Z,13.17
2019-03-26T19:46:01.600Z,13.87
2019-03-26T19:48:33.430Z,11.37
2019-03-26T19:51:07.605Z,8.20
2019-03-26T19:53:38.370Z,11.63
2019-03-26T19:56:09.466Z,12.17
2019-03-26T19:58:40.572Z,12.77
2019-03-26T20:01:11.856Z,12.67
2019-03-26T20:03:42.806Z,13.00
2019-03-26T20:06:14.287Z,12.97
2019-03-26T20:08:45.206Z,9.60
2019-03-26T20:11:16.049Z,10.30
2019-03-26T20:13:51.979Z,15.23
2019-03-26T20:16:23.267Z,10.47
2019-03-26T20:18:54.377Z,13.53
2019-03-26T20:21:25.469Z,9.00
2019-03-26T20:23:56.679Z,12.17
2019-03-26T20:26:28.032Z,12.40
2019-03-26T20:28:59.878Z,8.73
2019-03-26T20:31:30.729Z,12.53
2019-03-26T20:34:01.714Z,11.27
2019-03-26T20:36:33.700Z,9.07
2019-03-26T20:39:05.893Z,7.03
2019-03-26T20:41:38.341Z,11.03
2019-03-26T20:44:09.884Z,6.67
2019-03-26T20:46:40.940Z,7.93
2019-03-26T20:49:11.815Z,13.40
2019-03-26T20:51:43.241Z,9.23
2019-03-26T20:54:14.082Z,9.73
2019-03-26T20:56:45.525Z,8.73
2019-03-26T20:59:16.696Z,11.43
2019-03-26T21:01:47.530Z,10.77
2019-03-26T21:04:18.337Z,7.90
2019-03-26T21:06:50.065Z,9.57
2019-03-26T21:09:20.823Z,9.07
2019-03-26T21:11:52.682Z,8.73
2019-03-26T21:14:25.924Z,8.27
2019-03-26T21:16:56.885Z,11.03
2019-03-26T21:19:27.719Z,10.57
2019-03-26T21:21:58.636Z,8.03
2019-03-26T21:24:29.490Z,10.50
2019-03-26T21:27:00.285Z,9.70
2019-03-26T21:29:31.387Z,10.73
2019-03-26T21:32:02.257Z,7.47
2019-03-26T21:34:33.228Z,9.27
2019-03-26T21:37:04.035Z,9.17
2019-03-26T21:39:34.842Z,11.63
2019-03-26T21:42:05.668Z,13.10
2019-03-26T21:44:36.529Z,9.30
2019-03-26T21:47:07.318Z,12.27
2019-03-26T21:49:38.127Z,10.73
2019-03-26T21:52:08.963Z,6.60
2019-03-26T21:54:39.749Z,10.33
2019-03-26T21:57:10.540Z,8.50
2019-03-26T21:59:41.318Z,12.00
2019-03-26T22:02:12.279Z,12.10
2019-03-26T22:04:43.075Z,13.43
2019-03-26T22:07:14.519Z,10.73
2019-03-26T22:09:45.283Z,17.33
2019-03-26T22:12:16.749Z,11.40
2019-03-26T22:14:47.710Z,11.37
2019-03-26T22:17:19.029Z,13.83
2019-03-26T22:19:49.911Z,11.13
2019-03-26T22:22:21.029Z,8.63
2019-03-26T22:24:51.833Z,12.80
2019-03-26T22:27:23.615Z,14.20
2019-03-26T22:29:54.323Z,13.23
2019-03-26T22:32:25.105Z,11.23
2019-03-26T22:34:55.925Z,10.30
2019-03-26T22:37:26.737Z,12.73
2019-03-26T22:39:57.503Z,12.00
2019-03-26T22:42:28.203Z,12.03
2019-03-26T22:44:59.060Z,11.37
2019-03-26T22:47:29.786Z,14.43
2019-03-26T22:50:00.631Z,7.50
2019-03-26T22:52:31.407Z,14.57
2019-03-26T22:55:02.206Z,16.17
2019-03-26T22:57:32.952Z,13.43
2019-03-26T23:00:04.482Z,11.73
2019-03-26T23:02:37.069Z,11.43
2019-03-26T23:05:08.982Z,12.53
2019-03-26T23:07:40.855Z,11.57
2019-03-26T23:10:12.696Z,10.97
2019-03-26T23:12:43.506Z,10.90
2019-03-26T23:15:21.810Z,9.83
2019-03-26T23:17:53.247Z,8.63
2019-03-26T23:20:24.077Z,12.20
2019-03-26T23:22:55.009Z,11.47
2019-03-26T23:25:25.797Z,11.77
2019-03-26T23:27:56.738Z,8.97
2019-03-26T23:30:27.565Z,8.90
2019-03-26T23:32:58.378Z,9.03
2019-03-26T23:35:29.180Z,11.57
2019-03-26T23:37:59.942Z,8.27
2019-03-26T23:40:31.035Z,7.60
2019-03-26T23:43:01.820Z,9.57
2019-03-26T23:45:33.946Z,12.70
2019-03-26T23:48:05.426Z,9.03
2019-03-26T23:50:36.234Z,10.30
2019-03-26T23:53:07.583Z,11.80
2019-03-26T23:55:38.384Z,12.83
2019-03-26T23:58:09.202Z,14.60
